Time;durP1;ratioP1;P1;durP2;ratioP2;P2;SDS_P1;SDS_P2;PMS_P1;PMS_P2;Temp;Humidity;BMP_temperature;BMP_pressure;BME280_temperature;BME280_humidity;BME280_pressure;Samples;Min_cycle;Max_cycle;Signal;HPM_P1;HPM_P2
2023/06/28 00:02:05;;;;;;;4.97;1.60;;;;;;;;;;4985550;28;88503;-53
2023/06/28 00:04:33;;;;;;;2.37;1.50;;;;;;;;;;4989883;28;89854;-53
2023/06/28 00:07:02;;;;;;;1.60;1.30;;;;;;;;;;4980989;28;89157;-53
2023/06/28 00:09:31;;;;;;;2.17;1.60;;;;;;;;;;4985034;28;87602;-53
2023/06/28 00:11:59;;;;;;;5.43;1.93;;;;;;;;;;4982931;28;88425;-53
2023/06/28 00:14:29;;;;;;;2.17;1.17;;;;;;;;;;4990981;28;88123;-53
2023/06/28 00:16:59;;;;;;;2.27;1.23;;;;;;;;;;4999901;28;87831;-53
2023/06/28 00:19:27;;;;;;;1.73;1.10;;;;;;;;;;4993190;28;87623;-53
2023/06/28 00:21:56;;;;;;;1.73;1.10;;;;;;;;;;4984875;28;88649;-53
2023/06/28 00:24:25;;;;;;;4.53;1.60;;;;;;;;;;4995851;28;89056;-53
2023/06/28 00:26:53;;;;;;;4.37;1.53;;;;;;;;;;4984927;28;88861;-53
2023/06/28 00:29:28;;;;;;;1.73;1.20;;;;;;;;;;4980400;28;87797;-53
2023/06/28 00:32:00;;;;;;;3.20;1.57;;;;;;;;;;4980054;28;88431;-53
2023/06/28 00:34:33;;;;;;;1.80;1.20;;;;;;;;;;4996193;28;88275;-53
2023/06/28 00:37:01;;;;;;;1.70;1.00;;;;;;;;;;4995023;28;88944;-53
2023/06/28 00:39:32;;;;;;;1.80;1.10;;;;;;;;;;4992091;28;87787;-53
2023/06/28 00:42:02;;;;;;;1.97;0.87;;;;;;;;;;4985798;28;88584;-53
2023/06/28 00:44:32;;;;;;;2.63;0.90;;;;;;;;;;5000223;28;88184;-53
2023/06/28 00:47:02;;;;;;;5.23;0.97;;;;;;;;;;4984215;28;89332;-53
2023/06/28 00:49:36;;;;;;;1.47;0.80;;;;;;;;;;4992380;28;87744;-53
2023/06/28 00:52:05;;;;;;;1.83;1.33;;;;;;;;;;4988852;28;88686;-53
2023/06/28 00:54:34;;;;;;;1.40;1.00;;;;;;;;;;4992773;28;90104;-53
2023/06/28 00:57:02;;;;;;;2.47;1.07;;;;;;;;;;4999284;28;88555;-53
2023/06/28 00:59:30;;;;;;;1.43;0.83;;;;;;;;;;4992539;28;87631;-53
2023/06/28 01:01:59;;;;;;;1.80;0.97;;;;;;;;;;4985414;28;88787;-53
2023/06/28 01:04:28;;;;;;;2.10;1.13;;;;;;;;;;4983885;28;89284;-53
2023/06/28 01:06:59;;;;;;;1.67;1.10;;;;;;;;;;4985306;28;89042;-53
2023/06/28 01:09:28;;;;;;;1.80;1.00;;;;;;;;;;4992819;28;87499;-53
2023/06/28 01:11:57;;;;;;;2.70;1.00;;;;;;;;;;4985876;28;88825;-53
2023/06/28 01:14:33;;;;;;;1.47;0.87;;;;;;;;;;4984402;28;88228;-53
2023/06/28 01:17:04;;;;;;;1.40;0.73;;;;;;;;;;4980547;28;87958;-53
2023/06/28 01:19:36;;;;;;;1.17;1.07;;;;;;;;;;4999397;28;88833;-53
2023/06/28 01:22:06;;;;;;;0.80;0.80;;;;;;;;;;4987564;28;88694;-53
2023/06/28 01:24:37;;;;;;;1.07;0.80;;;;;;;;;;4983070;28;88268;-53
2023/06/28 01:27:08;;;;;;;1.07;0.60;;;;;;;;;;4995912;28;87951;-53
2023/06/28 01:29:36;;;;;;;0.67;0.67;;;;;;;;;;4997234;28;87455;-53
2023/06/28 01:32:05;;;;;;;2.40;0.90;;;;;;;;;;4995177;28;89835;-53
2023/06/28 01:34:34;;;;;;;3.13;1.00;;;;;;;;;;4994920;28;87437;-53
2023/06/28 01:37:02;;;;;;;0.80;0.80;;;;;;;;;;4980472;28;87864;-53
2023/06/28 01:39:33;;;;;;;1.43;0.90;;;;;;;;;;4980322;28;87724;-53
2023/06/28 01:42:03;;;;;;;1.10;0.80;;;;;;;;;;4980192;28;88711;-53
2023/06/28 01:44:33;;;;;;;1.70;0.90;;;;;;;;;;4979329;28;89046;-53
2023/06/28 01:47:01;;;;;;;1.43;0.60;;;;;;;;;;4979724;28;89797;-53
2023/06/28 01:49:30;;;;;;;2.33;0.90;;;;;;;;;;4980152;28;87613;-53
2023/06/28 01:51:58;;;;;;;0.60;0.60;;;;;;;;;;4991676;28;89791;-53
2023/06/28 01:54:28;;;;;;;1.40;0.80;;;;;;;;;;4998908;28;89307;-53
2023/06/28 01:56:57;;;;;;;1.63;0.50;;;;;;;;;;4999656;28;87940;-53
2023/06/28 01:59:27;;;;;;;7.27;0.83;;;;;;;;;;4999311;28;87238;-53
2023/06/28 02:01:55;;;;;;;3.50;0.80;;;;;;;;;;5002015;28;89733;-53
2023/06/28 02:04:23;;;;;;;0.63;0.37;;;;;;;;;;5002545;28;88202;-53
2023/06/28 02:06:52;;;;;;;0.97;0.70;;;;;;;;;;4993654;28;87504;-53
2023/06/28 02:09:20;;;;;;;0.97;0.63;;;;;;;;;;4982977;28;87863;-53
2023/06/28 02:11:48;;;;;;;0.60;0.60;;;;;;;;;;4982904;28;88779;-53
2023/06/28 02:14:17;;;;;;;0.70;0.70;;;;;;;;;;4982823;28;88226;-53
2023/06/28 02:16:48;;;;;;;3.50;1.27;;;;;;;;;;4988670;28;87911;-53
2023/06/28 02:19:20;;;;;;;1.50;1.00;;;;;;;;;;5003091;28;87541;-52
2023/06/28 02:21:48;;;;;;;1.20;1.00;;;;;;;;;;4988255;28;88783;-53
2023/06/28 02:24:16;;;;;;;2.90;1.50;;;;;;;;;;4982731;28;89061;-53
2023/06/28 02:26:45;;;;;;;2.60;1.23;;;;;;;;;;4989956;28;87604;-53
2023/06/28 02:29:13;;;;;;;2.80;1.23;;;;;;;;;;4982747;28;87666;-53
2023/06/28 02:31:42;;;;;;;4.60;1.80;;;;;;;;;;4985592;28;88623;-53
2023/06/28 02:34:13;;;;;;;1.87;1.40;;;;;;;;;;4992485;28;89019;-53
2023/06/28 02:36:42;;;;;;;2.23;1.37;;;;;;;;;;4985132;28;88884;-53
2023/06/28 02:39:14;;;;;;;1.80;1.30;;;;;;;;;;4985096;28;87678;-53
2023/06/28 02:41:43;;;;;;;3.00;1.70;;;;;;;;;;4982786;28;88755;-53
2023/06/28 02:44:16;;;;;;;2.37;1.50;;;;;;;;;;4983728;28;89153;-53
2023/06/28 02:46:44;;;;;;;5.47;2.00;;;;;;;;;;4983566;28;87950;-54
2023/06/28 02:49:14;;;;;;;2.23;1.57;;;;;;;;;;4990714;28;87493;-53
2023/06/28 02:51:44;;;;;;;1.50;1.23;;;;;;;;;;4989127;28;88633;-53
2023/06/28 02:54:14;;;;;;;2.63;1.30;;;;;;;;;;4994449;28;88211;-53
2023/06/28 02:56:44;;;;;;;2.07;1.57;;;;;;;;;;4994613;28;89015;-53
2023/06/28 02:59:14;;;;;;;3.77;1.73;;;;;;;;;;4981774;28;87925;-53
2023/06/28 03:01:42;;;;;;;4.17;1.87;;;;;;;;;;4982061;28;88783;-53
2023/06/28 03:04:13;;;;;;;4.33;1.83;;;;;;;;;;4985096;28;89276;-53
2023/06/28 03:06:45;;;;;;;2.63;1.80;;;;;;;;;;4987171;28;87871;-53
2023/06/28 03:09:16;;;;;;;4.53;1.70;;;;;;;;;;4988283;28;87372;-53
2023/06/28 03:11:48;;;;;;;3.97;1.87;;;;;;;;;;4987180;28;88521;-53
2023/06/28 03:14:20;;;;;;;4.27;2.03;;;;;;;;;;4984328;28;88052;-53
2023/06/28 03:16:48;;;;;;;3.23;2.13;;;;;;;;;;4987239;28;87899;-53
2023/06/28 03:19:18;;;;;;;3.77;2.20;;;;;;;;;;4982383;28;87941;-53
2023/06/28 03:21:46;;;;;;;2.53;2.07;;;;;;;;;;4991325;28;89502;-53
2023/06/28 03:24:15;;;;;;;3.77;2.37;;;;;;;;;;4998268;28;89227;-53
2023/06/28 03:26:45;;;;;;;5.10;2.23;;;;;;;;;;4996603;28;89795;-53
2023/06/28 03:29:15;;;;;;;4.30;2.00;;;;;;;;;;4999155;28;87610;-53
2023/06/28 03:31:44;;;;;;;4.37;1.33;;;;;;;;;;4997722;28;87449;-53
2023/06/28 03:34:13;;;;;;;4.40;1.60;;;;;;;;;;4978683;28;87582;-53
2023/06/28 03:36:43;;;;;;;5.60;2.00;;;;;;;;;;4991798;28;87698;-53
2023/06/28 03:39:29;;;;;;;2.53;1.50;;;;;;;;;;4994883;28;87899;-53
2023/06/28 03:42:01;;;;;;;2.67;1.73;;;;;;;;;;4978568;28;88637;-53
2023/06/28 03:44:30;;;;;;;2.30;1.43;;;;;;;;;;4978910;28;88582;-53
2023/06/28 03:47:00;;;;;;;2.57;1.70;;;;;;;;;;4979783;28;87974;-53
2023/06/28 03:49:28;;;;;;;3.23;1.30;;;;;;;;;;4978372;28;87965;-53
2023/06/28 03:51:58;;;;;;;3.63;1.40;;;;;;;;;;4991600;28;89828;-53
2023/06/28 03:54:28;;;;;;;2.13;1.20;;;;;;;;;;4998131;28;88130;-53
2023/06/28 03:56:57;;;;;;;1.70;1.30;;;;;;;;;;4997886;28;88835;-53
2023/06/28 03:59:25;;;;;;;1.27;1.13;;;;;;;;;;4998415;28;87296;-53
2023/06/28 04:01:53;;;;;;;3.27;1.50;;;;;;;;;;4996202;28;88438;-53
2023/06/28 04:04:23;;;;;;;1.07;0.97;;;;;;;;;;4993707;28;87703;-53
2023/06/28 04:06:52;;;;;;;2.07;1.23;;;;;;;;;;5000398;28;88774;-53
2023/06/28 04:09:25;;;;;;;1.63;1.23;;;;;;;;;;5001446;28;87603;-53
2023/06/28 04:11:55;;;;;;;2.43;1.30;;;;;;;;;;5000705;28;88813;-53
2023/06/28 04:14:25;;;;;;;1.20;1.00;;;;;;;;;;5000582;28;90254;-53
2023/06/28 04:16:53;;;;;;;2.40;1.30;;;;;;;;;;5000509;28;89824;-54
2023/06/28 04:19:22;;;;;;;3.60;1.03;;;;;;;;;;5001251;28;87659;-53
2023/06/28 04:21:51;;;;;;;2.50;1.03;;;;;;;;;;5000465;28;89678;-53
2023/06/28 04:24:19;;;;;;;0.93;0.80;;;;;;;;;;4999996;28;88144;-53
2023/06/28 04:26:49;;;;;;;1.63;0.80;;;;;;;;;;4996195;28;87772;-53
2023/06/28 04:29:19;;;;;;;3.00;1.30;;;;;;;;;;4981197;28;87733;-53
2023/06/28 04:31:50;;;;;;;1.17;1.00;;;;;;;;;;4981174;28;88557;-53
2023/06/28 04:34:20;;;;;;;1.27;0.80;;;;;;;;;;4980872;28;87996;-53
2023/06/28 04:36:49;;;;;;;1.53;0.97;;;;;;;;;;4997109;28;88832;-53
2023/06/28 04:39:34;;;;;;;1.70;1.03;;;;;;;;;;4999968;28;87881;-53
2023/06/28 04:42:06;;;;;;;1.43;0.70;;;;;;;;;;5000483;28;89747;-53
2023/06/28 04:44:36;;;;;;;1.40;0.70;;;;;;;;;;5000432;28;88213;-53
2023/06/28 04:47:05;;;;;;;2.03;0.90;;;;;;;;;;5000446;28;87601;-53
2023/06/28 04:49:35;;;;;;;1.93;0.80;;;;;;;;;;5000605;28;87404;-53
2023/06/28 04:52:03;;;;;;;2.77;1.03;;;;;;;;;;4997529;28;88646;-54
2023/06/28 04:54:32;;;;;;;2.63;0.70;;;;;;;;;;5000051;28;88292;-54
2023/06/28 04:57:00;;;;;;;0.83;0.77;;;;;;;;;;5000546;28;87937;-53
2023/06/28 04:59:30;;;;;;;2.53;1.03;;;;;;;;;;4982592;28;87365;-53
2023/06/28 05:01:58;;;;;;;0.97;0.77;;;;;;;;;;4980676;28;88425;-53
2023/06/28 05:04:32;;;;;;;0.57;0.57;;;;;;;;;;4979209;28;90396;-53
2023/06/28 05:07:03;;;;;;;1.23;0.80;;;;;;;;;;4995199;28;88901;-53
2023/06/28 05:09:32;;;;;;;1.27;1.07;;;;;;;;;;5000043;28;87569;-53
2023/06/28 05:12:02;;;;;;;1.73;0.80;;;;;;;;;;5000150;28;88790;-53
2023/06/28 05:14:38;;;;;;;2.67;1.10;;;;;;;;;;4984948;28;88087;-53
2023/06/28 05:17:08;;;;;;;1.70;0.73;;;;;;;;;;4980340;28;87838;-53
2023/06/28 05:19:38;;;;;;;4.23;1.33;;;;;;;;;;4995643;28;88127;-53
2023/06/28 05:22:10;;;;;;;0.57;0.53;;;;;;;;;;4986269;28;88877;-53
2023/06/28 05:24:40;;;;;;;3.93;0.70;;;;;;;;;;4980288;28;88021;-53
2023/06/28 05:27:12;;;;;;;2.63;0.90;;;;;;;;;;4980564;28;87796;-53
2023/06/28 05:29:42;;;;;;;0.97;0.70;;;;;;;;;;4979938;28;88001;-53
2023/06/28 05:32:10;;;;;;;0.93;0.60;;;;;;;;;;4980230;28;89785;-53
2023/06/28 05:34:39;;;;;;;0.90;0.73;;;;;;;;;;4980154;28;87412;-53
2023/06/28 05:37:07;;;;;;;0.80;0.70;;;;;;;;;;4994379;28;89365;-53
2023/06/28 05:39:35;;;;;;;0.60;0.60;;;;;;;;;;5003379;28;87722;-53
2023/06/28 05:42:04;;;;;;;3.80;0.80;;;;;;;;;;5003150;28;89925;-53
2023/06/28 05:44:32;;;;;;;1.07;0.63;;;;;;;;;;5003062;28;88194;-53
2023/06/28 05:47:02;;;;;;;0.60;0.43;;;;;;;;;;5002862;28;89047;-53
2023/06/28 05:49:31;;;;;;;1.57;0.70;;;;;;;;;;5003412;28;87632;-53
2023/06/28 05:52:00;;;;;;;1.80;0.70;;;;;;;;;;4984730;28;88783;-53
2023/06/28 05:54:28;;;;;;;0.93;0.67;;;;;;;;;;4982307;28;88964;-53
2023/06/28 05:56:57;;;;;;;1.10;0.80;;;;;;;;;;4983286;28;88761;-53
2023/06/28 05:59:25;;;;;;;1.07;0.63;;;;;;;;;;4987202;28;87712;-53
2023/06/28 06:01:54;;;;;;;2.50;1.00;;;;;;;;;;5002974;28;88749;-53
2023/06/28 06:04:24;;;;;;;1.47;0.90;;;;;;;;;;5000947;28;87823;-53
2023/06/28 06:06:52;;;;;;;2.10;0.97;;;;;;;;;;4993843;28;87771;-53
2023/06/28 06:09:21;;;;;;;0.50;0.50;;;;;;;;;;4989305;28;87652;-53
2023/06/28 06:11:49;;;;;;;0.60;0.60;;;;;;;;;;4988191;28;88655;-53
2023/06/28 06:14:18;;;;;;;2.37;1.13;;;;;;;;;;4993637;28;88304;-53
2023/06/28 06:16:46;;;;;;;2.83;0.90;;;;;;;;;;4999700;28;87699;-53
2023/06/28 06:19:14;;;;;;;2.67;0.70;;;;;;;;;;4996798;28;88125;-53
2023/06/28 06:21:44;;;;;;;3.17;0.70;;;;;;;;;;4997808;28;88582;-53
2023/06/28 06:24:13;;;;;;;2.60;0.70;;;;;;;;;;4992490;28;88323;-53
2023/06/28 06:26:42;;;;;;;1.43;0.83;;;;;;;;;;4982803;28;88173;-53
2023/06/28 06:29:10;;;;;;;1.00;0.77;;;;;;;;;;4982753;28;87634;-54
2023/06/28 06:31:38;;;;;;;1.50;0.83;;;;;;;;;;4987617;28;89622;-54
2023/06/28 06:34:07;;;;;;;1.57;0.83;;;;;;;;;;4996512;28;87522;-53
2023/06/28 06:36:36;;;;;;;1.47;0.70;;;;;;;;;;4982317;28;87956;-54
2023/06/28 06:39:06;;;;;;;2.00;0.90;;;;;;;;;;4989603;28;87688;-54
2023/06/28 06:41:34;;;;;;;1.33;0.97;;;;;;;;;;4984358;28;89001;-53
2023/06/28 06:44:05;;;;;;;0.70;0.60;;;;;;;;;;4987225;28;89064;-53
2023/06/28 06:46:34;;;;;;;1.93;1.10;;;;;;;;;;4984632;28;88728;-53
2023/06/28 06:49:02;;;;;;;1.10;0.80;;;;;;;;;;4996785;28;87675;-53
2023/06/28 06:51:31;;;;;;;4.20;0.83;;;;;;;;;;4981704;28;89596;-53
2023/06/28 06:53:59;;;;;;;1.93;0.90;;;;;;;;;;4988992;28;88274;-53
2023/06/28 06:56:31;;;;;;;0.63;0.60;;;;;;;;;;4987950;28;89052;-53
2023/06/28 06:59:00;;;;;;;1.93;0.83;;;;;;;;;;4987710;28;87525;-53
2023/06/28 07:01:32;;;;;;;1.47;0.80;;;;;;;;;;4982287;28;88500;-54
2023/06/28 07:04:00;;;;;;;1.87;0.80;;;;;;;;;;4981522;28;89093;-53
2023/06/28 07:06:32;;;;;;;1.40;0.80;;;;;;;;;;4984647;28;88564;-53
2023/06/28 07:09:01;;;;;;;1.37;0.87;;;;;;;;;;4982098;28;87871;-53
2023/06/28 07:11:32;;;;;;;1.47;0.60;;;;;;;;;;4981705;28;89729;-53
2023/06/28 07:14:02;;;;;;;1.00;0.53;;;;;;;;;;4982119;28;88272;-53
2023/06/28 07:16:34;;;;;;;1.13;0.80;;;;;;;;;;4999067;28;88881;-53
2023/06/28 07:19:02;;;;;;;2.30;0.83;;;;;;;;;;5001931;28;87539;-53
2023/06/28 07:21:35;;;;;;;1.30;0.67;;;;;;;;;;5001323;28;88647;-53
2023/06/28 07:24:06;;;;;;;2.47;0.93;;;;;;;;;;4991285;28;88289;-53
2023/06/28 07:26:36;;;;;;;0.63;0.50;;;;;;;;;;4981893;28;87968;-53
2023/06/28 07:29:06;;;;;;;2.53;0.70;;;;;;;;;;4984732;28;87723;-53
2023/06/28 07:31:36;;;;;;;1.60;0.70;;;;;;;;;;4987246;28;89964;-53
2023/06/28 07:34:06;;;;;;;1.47;0.80;;;;;;;;;;5000876;28;88962;-54
2023/06/28 07:36:34;;;;;;;4.03;0.70;;;;;;;;;;5001324;28;88668;-53
2023/06/28 07:39:02;;;;;;;1.23;0.73;;;;;;;;;;4993658;28;87680;-53
2023/06/28 07:41:31;;;;;;;1.77;0.57;;;;;;;;;;4981385;28;88254;-53
2023/06/28 07:44:03;;;;;;;0.73;0.73;;;;;;;;;;4981552;28;88182;-53
2023/06/28 07:46:32;;;;;;;0.63;0.60;;;;;;;;;;4984566;28;87379;-53
2023/06/28 07:49:02;;;;;;;1.03;0.50;;;;;;;;;;4996542;28;87654;-53
2023/06/28 07:51:30;;;;;;;1.10;0.67;;;;;;;;;;4981652;28;87516;-53
2023/06/28 07:54:02;;;;;;;0.60;0.60;;;;;;;;;;4997069;28;88025;-54
2023/06/28 07:56:31;;;;;;;1.17;0.70;;;;;;;;;;5001180;28;87830;-54
2023/06/28 07:59:03;;;;;;;1.33;0.80;;;;;;;;;;4999889;28;87746;-53
2023/06/28 08:01:33;;;;;;;2.73;0.70;;;;;;;;;;4999608;28;88707;-53
2023/06/28 08:04:02;;;;;;;1.33;0.67;;;;;;;;;;4980700;28;88082;-55
2023/06/28 08:06:30;;;;;;;2.03;0.70;;;;;;;;;;4981091;28;88992;-53
2023/06/28 08:09:00;;;;;;;0.63;0.63;;;;;;;;;;4981479;28;87693;-54
2023/06/28 08:11:28;;;;;;;0.67;0.67;;;;;;;;;;4981229;28;89734;-54
2023/06/28 08:13:57;;;;;;;2.07;0.90;;;;;;;;;;4981104;28;88113;-53
2023/06/28 08:16:27;;;;;;;0.60;0.30;;;;;;;;;;4985266;28;88887;-54
2023/06/28 08:18:55;;;;;;;2.90;0.70;;;;;;;;;;4998994;28;87701;-53
2023/06/28 08:21:23;;;;;;;2.50;0.70;;;;;;;;;;4986057;28;89721;-54
2023/06/28 08:23:52;;;;;;;1.53;0.80;;;;;;;;;;4988378;28;89331;-54
2023/06/28 08:26:21;;;;;;;1.43;0.80;;;;;;;;;;4993195;28;89024;-53
2023/06/28 08:28:49;;;;;;;1.53;0.80;;;;;;;;;;5001221;28;87721;-53
2023/06/28 08:31:29;;;;;;;1.43;0.70;;;;;;;;;;4996983;28;88461;-55
2023/06/28 08:33:58;;;;;;;1.73;0.80;;;;;;;;;;4997334;28;88092;-53
2023/06/28 08:36:31;;;;;;;0.80;0.63;;;;;;;;;;4990889;28;87987;-53
2023/06/28 08:39:01;;;;;;;2.33;0.90;;;;;;;;;;4982335;28;87726;-53
2023/06/28 08:41:31;;;;;;;2.77;0.97;;;;;;;;;;4980910;28;89834;-53
2023/06/28 08:43:59;;;;;;;2.53;1.10;;;;;;;;;;4980804;28;87507;-54
2023/06/28 08:46:29;;;;;;;3.47;1.27;;;;;;;;;;4980704;28;87268;-53
2023/06/28 08:48:59;;;;;;;6.10;1.30;;;;;;;;;;4980693;28;87974;-53
2023/06/28 08:51:27;;;;;;;3.70;1.33;;;;;;;;;;4980582;28;89761;-53
2023/06/28 08:53:58;;;;;;;4.33;1.17;;;;;;;;;;4980852;28;88137;-53
2023/06/28 08:56:27;;;;;;;4.90;1.63;;;;;;;;;;4980791;28;87788;-53
2023/06/28 08:58:56;;;;;;;3.43;1.07;;;;;;;;;;4980853;28;87697;-53
2023/06/28 09:01:24;;;;;;;2.73;1.40;;;;;;;;;;4980207;28;87570;-53
2023/06/28 09:03:54;;;;;;;4.30;1.07;;;;;;;;;;4980100;28;88080;-53
2023/06/28 09:06:22;;;;;;;2.97;1.40;;;;;;;;;;4980977;28;87711;-53
2023/06/28 09:08:51;;;;;;;1.23;1.07;;;;;;;;;;4980725;28;87670;-53
2023/06/28 09:11:19;;;;;;;4.37;1.40;;;;;;;;;;4983526;28;88596;-53
2023/06/28 09:13:47;;;;;;;1.33;1.00;;;;;;;;;;4983531;28;90080;-53
2023/06/28 09:16:16;;;;;;;1.50;1.00;;;;;;;;;;4983854;28;88765;-53
2023/06/28 09:18:44;;;;;;;4.13;1.30;;;;;;;;;;4984034;28;87578;-53
2023/06/28 09:21:14;;;;;;;3.10;1.30;;;;;;;;;;4983844;28;88761;-53
2023/06/28 09:23:43;;;;;;;4.77;1.57;;;;;;;;;;4983777;28;89166;-53
2023/06/28 09:26:11;;;;;;;2.23;1.40;;;;;;;;;;4983760;28;87850;-53
2023/06/28 09:28:39;;;;;;;3.50;1.63;;;;;;;;;;4983785;28;87475;-53
2023/06/28 09:31:09;;;;;;;1.70;1.37;;;;;;;;;;4983712;28;88561;-53
2023/06/28 09:33:38;;;;;;;4.43;2.10;;;;;;;;;;4983889;28;89049;-53
2023/06/28 09:36:06;;;;;;;2.90;1.80;;;;;;;;;;4983788;28;87981;-53
2023/06/28 09:38:36;;;;;;;2.83;1.40;;;;;;;;;;4983639;28;87874;-53
2023/06/28 09:41:06;;;;;;;2.30;1.43;;;;;;;;;;4983697;28;88772;-53
2023/06/28 09:43:35;;;;;;;2.43;1.70;;;;;;;;;;4983149;28;88272;-53
2023/06/28 09:46:13;;;;;;;4.23;1.70;;;;;;;;;;4983423;28;87936;-53
2023/06/28 09:48:45;;;;;;;2.67;1.40;;;;;;;;;;4983798;28;88111;-54
2023/06/28 09:51:14;;;;;;;1.47;1.27;;;;;;;;;;4983300;28;87404;-53
2023/06/28 09:53:53;;;;;;;1.83;1.33;;;;;;;;;;4983461;28;88323;-53
2023/06/28 09:56:21;;;;;;;3.73;1.03;;;;;;;;;;4983381;28;88005;-53
2023/06/28 09:58:50;;;;;;;1.10;1.07;;;;;;;;;;4983358;28;87637;-53
2023/06/28 10:01:18;;;;;;;1.50;1.27;;;;;;;;;;4983421;28;88209;-54
2023/06/28 10:03:49;;;;;;;3.07;1.43;;;;;;;;;;4982321;28;90024;-51
2023/06/28 10:06:18;;;;;;;3.43;1.50;;;;;;;;;;4985673;28;88821;-52
2023/06/28 10:08:47;;;;;;;2.10;1.43;;;;;;;;;;4986355;28;87387;-51
2023/06/28 10:11:17;;;;;;;3.87;1.60;;;;;;;;;;4983447;28;89875;-51
2023/06/28 10:13:47;;;;;;;5.33;3.43;;;;;;;;;;4983190;28;88366;-51
2023/06/28 10:16:17;;;;;;;8.57;4.50;;;;;;;;;;4983222;28;89141;-51
2023/06/28 10:18:45;;;;;;;14.03;5.77;;;;;;;;;;4983564;28;87597;-51
2023/06/28 10:21:14;;;;;;;4.70;3.50;;;;;;;;;;4982238;28;89688;-51
2023/06/28 10:23:43;;;;;;;6.27;4.07;;;;;;;;;;4982708;28;88061;-51
2023/06/28 10:26:11;;;;;;;8.67;4.33;;;;;;;;;;4983092;28;87942;-51
2023/06/28 10:28:41;;;;;;;5.07;2.60;;;;;;;;;;4982426;28;87670;-51
2023/06/28 10:31:10;;;;;;;3.83;2.77;;;;;;;;;;4982949;28;88717;-51
2023/06/28 10:33:39;;;;;;;3.53;2.83;;;;;;;;;;4982681;28;89085;-51
2023/06/28 10:36:07;;;;;;;2.10;1.90;;;;;;;;;;4983064;28;89179;-51
2023/06/28 10:38:37;;;;;;;3.10;1.90;;;;;;;;;;4983105;28;87672;-51
2023/06/28 10:41:06;;;;;;;4.83;1.90;;;;;;;;;;4982778;28;88410;-51
2023/06/28 10:43:34;;;;;;;2.13;1.63;;;;;;;;;;4982706;28;88142;-51
2023/06/28 10:46:04;;;;;;;2.17;1.93;;;;;;;;;;4982877;28;87845;-52
2023/06/28 10:48:33;;;;;;;2.50;2.00;;;;;;;;;;4983086;28;87639;-51
2023/06/28 10:51:05;;;;;;;2.33;1.77;;;;;;;;;;4982515;28;89777;-51
2023/06/28 10:53:33;;;;;;;3.17;2.47;;;;;;;;;;4982032;28;89048;-51
2023/06/28 10:56:09;;;;;;;5.20;2.13;;;;;;;;;;4982338;28;87543;-51
2023/06/28 10:58:38;;;;;;;4.77;2.40;;;;;;;;;;4982654;28;87622;-51
2023/06/28 11:01:08;;;;;;;6.53;2.10;;;;;;;;;;4982516;28;88624;-51
2023/06/28 11:03:40;;;;;;;3.20;2.33;;;;;;;;;;4981885;28;88124;-51
2023/06/28 11:06:08;;;;;;;7.33;3.30;;;;;;;;;;4982375;28;88051;-51
2023/06/28 11:08:38;;;;;;;3.03;2.40;;;;;;;;;;4982624;28;87614;-51
2023/06/28 11:11:08;;;;;;;7.13;2.20;;;;;;;;;;4982169;28;89677;-51
2023/06/28 11:13:49;;;;;;;3.40;1.87;;;;;;;;;;4982347;28;88245;-51
2023/06/28 11:16:24;;;;;;;4.37;2.00;;;;;;;;;;4982222;28;88673;-51
2023/06/28 11:18:54;;;;;;;3.77;2.47;;;;;;;;;;4981943;28;87774;-51
2023/06/28 11:21:24;;;;;;;4.50;2.13;;;;;;;;;;4982069;28;88601;-52
2023/06/28 11:23:54;;;;;;;5.23;2.17;;;;;;;;;;4981509;28;89207;-51
2023/06/28 11:26:32;;;;;;;4.10;2.50;;;;;;;;;;4981633;28;87900;-51
2023/06/28 11:29:01;;;;;;;5.33;3.30;;;;;;;;;;4982421;28;87518;-51
2023/06/28 11:31:39;;;;;;;6.07;2.60;;;;;;;;;;4981977;28;89999;-51
2023/06/28 11:34:09;;;;;;;7.80;3.20;;;;;;;;;;4980352;28;89185;-51
2023/06/28 11:36:38;;;;;;;8.87;3.13;;;;;;;;;;4982033;28;87407;-52
2023/06/28 11:39:07;;;;;;;4.87;2.53;;;;;;;;;;4982137;28;87614;-51
2023/06/28 11:41:35;;;;;;;5.27;2.43;;;;;;;;;;4982003;28;87241;-51
2023/06/28 11:44:04;;;;;;;3.47;2.60;;;;;;;;;;4981286;28;88010;-51
2023/06/28 11:46:33;;;;;;;6.27;3.07;;;;;;;;;;4981483;28;88910;-51
2023/06/28 11:49:03;;;;;;;4.13;2.50;;;;;;;;;;4981957;28;87594;-51
2023/06/28 11:51:37;;;;;;;5.80;3.03;;;;;;;;;;4981661;28;87516;-51
2023/06/28 11:54:06;;;;;;;8.67;2.27;;;;;;;;;;4981257;28;88058;-51
2023/06/28 11:56:35;;;;;;;7.17;2.73;;;;;;;;;;4981331;28;87943;-51
2023/06/28 11:59:16;;;;;;;4.60;2.67;;;;;;;;;;4981661;28;87684;-51
2023/06/28 12:01:44;;;;;;;3.87;2.07;;;;;;;;;;4981634;28;89589;-51
2023/06/28 12:04:19;;;;;;;5.80;3.00;;;;;;;;;;4980764;28;88276;-51
2023/06/28 12:06:51;;;;;;;7.80;2.63;;;;;;;;;;4981377;28;87735;-51
2023/06/28 12:09:20;;;;;;;5.53;2.97;;;;;;;;;;4981044;28;87814;-51
2023/06/28 12:11:53;;;;;;;4.07;2.50;;;;;;;;;;4981160;28;89630;-51
2023/06/28 12:14:21;;;;;;;4.37;2.67;;;;;;;;;;4981129;28;87376;-51
2023/06/28 12:16:50;;;;;;;4.67;3.00;;;;;;;;;;4981416;28;87848;-51
2023/06/28 12:19:20;;;;;;;6.57;2.80;;;29.10;44.30;;;;;;4981778;28;87181;-51
2023/06/28 12:21:48;;;;;;;5.33;2.33;;;29.20;44.90;;;;;;4981183;28;87463;-51
2023/06/28 12:24:17;;;;;;;4.87;2.33;;;29.30;45.00;;;;;;4980291;28;88181;-51
2023/06/28 12:26:45;;;;;;;3.53;2.77;;;29.30;45.00;;;;;;4981145;28;87848;-52
2023/06/28 12:29:13;;;;;;;2.47;2.00;;;29.30;45.10;;;;;;4981403;28;87241;-52
2023/06/28 12:31:43;;;;;;;4.07;2.60;;;29.30;45.10;;;;;;4981056;28;88775;-53
2023/06/28 12:34:11;;;;;;;5.23;3.00;;;29.30;45.10;;;;;;4980580;28;88930;-53
2023/06/28 12:36:41;;;;;;;3.83;2.53;;;29.30;45.00;;;;;;4980873;28;88702;-53
2023/06/28 12:39:09;;;;;;;4.87;2.90;;;29.40;45.00;;;;;;4981000;28;87651;-53
2023/06/28 12:41:37;;;;;;;7.47;3.33;;;29.50;45.00;;;;;;4988963;28;89406;-53
2023/06/28 12:44:05;;;;;;;10.00;4.17;;;29.60;45.10;;;;;;5000117;28;88092;-52
2023/06/28 12:46:33;;;;;;;5.13;2.40;;;29.70;45.20;;;;;;5000197;28;88978;-53
2023/06/28 12:49:04;;;;;;;3.10;2.23;;;29.70;45.20;;;;;;5000520;28;87611;-53
2023/06/28 12:51:32;;;;;;;4.80;2.80;;;29.80;45.30;;;;;;4997545;28;88555;-54
2023/06/28 12:54:01;;;;;;;5.47;2.83;;;29.80;45.30;;;;;;4999893;28;87431;-53
2023/06/28 12:56:29;;;;;;;4.87;3.00;;;29.90;45.40;;;;;;4999489;28;89051;-52
2023/06/28 12:58:57;;;;;;;6.83;2.87;;;29.90;45.40;;;;;;5000215;28;87745;-53
2023/06/28 13:01:25;;;;;;;7.57;2.70;;;29.90;45.50;;;;;;5000314;28;89635;-53
2023/06/28 13:03:54;;;;;;;6.27;3.00;;;29.90;45.50;;;;;;4999518;28;88462;-53
2023/06/28 13:06:23;;;;;;;5.73;3.03;;;29.90;45.50;;;;;;5000148;28;87307;-53
2023/06/28 13:08:52;;;;;;;5.03;2.80;;;29.80;46.20;;;;;;5000278;28;87703;-53
2023/06/28 13:11:21;;;;;;;6.40;3.00;;;29.80;45.60;;;;;;4994898;28;90719;-53
2023/06/28 13:13:50;;;;;;;8.27;2.83;;;29.80;45.70;;;;;;4995218;28;88368;-53
2023/06/28 13:16:20;;;;;;;7.97;2.70;;;29.80;46.40;;;;;;4989274;28;87957;-53
2023/06/28 13:18:48;;;;;;;6.13;2.90;;;29.70;45.80;;;;;;5000335;28;87620;-53
2023/06/28 13:21:16;;;;;;;4.77;2.73;;;29.70;45.90;;;;;;4999555;28;87434;-53
2023/06/28 13:23:45;;;;;;;4.93;2.73;;;29.70;46.00;;;;;;4989071;28;88342;-53
2023/06/28 13:26:13;;;;;;;7.23;3.23;;;29.60;46.00;;;;;;5000053;28;88669;-52
2023/06/28 13:28:43;;;;;;;6.37;2.90;;;29.60;46.80;;;;;;4999844;28;87683;-51
2023/06/28 13:31:12;;;;;;;9.57;3.13;;;29.60;46.20;;;;;;5000482;28;89934;-52
2023/06/28 13:33:40;;;;;;;7.00;3.10;;;29.60;46.20;;;;;;5000016;28;88000;-52
2023/06/28 13:36:08;;;;;;;4.97;2.83;;;29.60;46.30;;;;;;4999857;28;87346;-52
2023/06/28 13:38:38;;;;;;;9.60;2.97;;;29.60;46.30;;;;;;5000274;28;87829;-52
2023/06/28 13:41:06;;;;;;;5.03;2.83;;;29.60;46.30;;;;;;4999836;28;88646;-51
2023/06/28 13:43:35;;;;;;;8.73;2.60;;;29.60;46.30;;;;;;4999929;28;88183;-51
2023/06/28 13:46:04;;;;;;;8.87;3.00;;;29.60;46.30;;;;;;4999853;28;87767;-51
2023/06/28 13:48:33;;;;;;;10.40;3.03;;;29.60;46.30;;;;;;4999501;28;87944;-51
2023/06/28 13:51:01;;;;;;;8.30;3.20;;;29.60;46.40;;;;;;4999637;28;88749;-51
2023/06/28 13:53:29;;;;;;;8.27;3.07;;;29.60;46.30;;;;;;4999646;28;88345;-52
2023/06/28 13:55:58;;;;;;;6.00;3.23;;;29.60;46.30;;;;;;4999748;28;89305;-52
2023/06/28 13:58:27;;;;;;;5.47;2.37;;;29.60;46.40;;;;;;5002734;28;87667;-52
2023/06/28 14:00:56;;;;;;;6.67;2.70;;;29.60;46.40;;;;;;5003120;28;89794;-54
2023/06/28 14:03:26;;;;;;;8.87;3.00;;;29.60;46.40;;;;;;5002796;28;89413;-51
2023/06/28 14:05:55;;;;;;;4.57;2.83;;;29.60;46.40;;;;;;5002705;28;88438;-53
2023/06/28 14:08:23;;;;;;;8.13;3.33;;;29.60;46.40;;;;;;5002749;28;87846;-49
2023/06/28 14:10:51;;;;;;;6.57;3.07;;;29.60;47.10;;;;;;5001873;28;89765;-49
2023/06/28 14:13:19;;;;;;;10.67;3.90;;;29.50;46.50;;;;;;5002209;28;89861;-49
2023/06/28 14:15:48;;;;;;;5.23;3.03;;;29.50;46.50;;;;;;5002699;28;87657;-49
2023/06/28 14:18:16;;;;;;;8.83;3.70;;;29.50;46.50;;;;;;5003133;28;87766;-49
2023/06/28 14:20:45;;;;;;;4.50;3.17;;;29.50;46.50;;;;;;5002179;28;89959;-49
2023/06/28 14:23:13;;;;;;;10.00;4.13;;;29.50;46.50;;;;;;5002796;28;89148;-49
2023/06/28 14:25:41;;;;;;;10.60;4.33;;;29.50;46.50;;;;;;5002649;28;87918;-49
2023/06/28 14:28:11;;;;;;;6.10;3.47;;;29.50;46.50;;;;;;5002688;28;87796;-49
2023/06/28 14:30:39;;;;;;;10.17;4.23;;;29.50;46.50;;;;;;5002790;28;88301;-49
2023/06/28 14:33:07;;;;;;;7.73;3.67;;;29.50;46.50;;;;;;5002428;28;87370;-49
2023/06/28 14:35:35;;;;;;;9.57;4.23;;;29.50;46.50;;;;;;5002288;28;87710;-51